Cleveland Hopkins International Airport Cleveland US
ICAO: KCLE
IATA: CLE
Category: Large
Scheduled Services: Yes

Elevation: 791 ft
TransAlt. 18000 ft.

Airport Communications:
APP:119.625
ATIS:127.85
CLNC DEL:125.05
DEP:118.15
GND:121.7
RDO:122.2
RAMP CON:129.17
TWR:120.9
UNICOM:122.95

KCLE Zoom In..

Runways:

(A) RW 06L length 9000 ft width 150 ft
ILS 111.55 / hdg 57

(B) RW 06R length 9956 ft width 150 ft
ILS 111.90 / hdg 57

(C) RW 10 length 6018 ft width 150 ft
---- / hdg 100

(D) RW 24L length 9956 ft width 150 ft
ILS 109.90 / hdg 237

(E) RW 24R length 9000 ft width 150 ft
ILS 111.55 / hdg 237

(F) RW 28 length 6018 ft width 150 ft
ILS 110.70 / hdg 280

Location; KCLE
Day. 24 / Time. 01.51 Zulu
* Altimeter: 29.93
* Temperature: 01° c. 33.8°f.
* Wind from: 270° Speed 16 kn with Gusts up to 24 kn.
Dewpoint: -02° c.
Visibility: 9 Statute Miles.
Clouds: Overcast 1800 ft.
Conditions: Light Snow.

KCLE 240151Z 27016G24KT 9SM -SN OVC018 01/M02 A2993 RMK AO2 PK WND 26028/0141 SLP142 P0000 T00111022 $


Wind From 270°
Speed 16 kn.

YouTube Music Video
 
jpsmedia.com for Web Design  worldairports.se 2018   terms of use